Terminal Aerodrome Forecast
Issued by NWS

Home | Current Version | Previous Version | Text Only | Print | Product List | Glossary On
Versions: 1 2 3 4 5 6 7 8 9 10 11 12 13 14 15 16 17 18 19 20 21
229
FTUS41 KGYX 221129
TAFPSM
TAF
KPSM 221129Z 2212/2312 34006KT P6SM OVC080
     FM221600 VRB03KT P6SM BKN040
     FM221800 05005KT 5SM -RASN BR OVC015
      TEMPO 2220/2224 2SM -SN BR
     FM230000 VRB03KT P6SM BKN030=

USA.gov is the U.S. government's official web portal to all federal, state and local government web resources and services.